createdAt,value
2022-07-26T00:02:27.002Z,20.59
2022-07-26T00:04:54.923Z,20.66
2022-07-26T00:07:22.726Z,20.41
2022-07-26T00:09:50.476Z,20.68
2022-07-26T00:12:18.273Z,20.40
2022-07-26T00:14:46.046Z,20.49
2022-07-26T00:17:13.844Z,20.47
2022-07-26T00:19:43.074Z,20.40
2022-07-26T00:22:28.410Z,20.61
2022-07-26T00:24:56.268Z,20.63
2022-07-26T00:27:24.078Z,20.50
2022-07-26T00:29:53.504Z,20.39
2022-07-26T00:32:21.315Z,20.53
2022-07-26T00:34:51.572Z,20.63
2022-07-26T00:37:20.726Z,20.46
2022-07-26T00:39:48.781Z,20.60
2022-07-26T00:42:16.731Z,20.43
2022-07-26T00:44:46.798Z,20.07
2022-07-26T00:47:15.398Z,20.17
2022-07-26T00:49:44.030Z,20.01
2022-07-26T00:52:13.447Z,20.10
2022-07-26T00:54:45.627Z,20.13
2022-07-26T00:57:15.005Z,20.22
2022-07-26T00:59:43.452Z,20.06
2022-07-26T01:02:12.325Z,19.99
2022-07-26T01:04:40.633Z,19.82
2022-07-26T01:07:14.486Z,19.95
2022-07-26T01:09:45.896Z,20.01
2022-07-26T01:12:13.792Z,20.03
2022-07-26T01:14:43.782Z,20.00
2022-07-26T01:17:11.946Z,19.95
2022-07-26T01:19:39.911Z,20.03
2022-07-26T01:22:14.207Z,19.92
2022-07-26T01:24:42.572Z,20.03
2022-07-26T01:27:10.361Z,20.18
2022-07-26T01:29:38.169Z,19.95
2022-07-26T01:32:06.756Z,19.96
2022-07-26T01:34:34.594Z,19.88
2022-07-26T01:37:03.705Z,19.96
2022-07-26T01:39:32.916Z,20.14
2022-07-26T01:42:00.731Z,19.86
2022-07-26T01:44:28.620Z,20.02
2022-07-26T01:46:56.461Z,19.96
2022-07-26T01:49:24.266Z,19.64
2022-07-26T01:51:52.091Z,19.88
2022-07-26T01:54:22.444Z,19.97
2022-07-26T01:56:53.839Z,19.88
2022-07-26T01:59:21.649Z,19.74
2022-07-26T02:01:49.579Z,19.72
2022-07-26T02:04:31.650Z,19.67
2022-07-26T02:06:59.626Z,19.58
2022-07-26T02:09:29.920Z,19.75
2022-07-26T02:12:03.749Z,19.58
2022-07-26T02:14:31.492Z,19.71
2022-07-26T02:17:00.734Z,19.64
2022-07-26T02:19:29.197Z,19.69
2022-07-26T02:21:57.130Z,19.75
2022-07-26T02:24:24.949Z,19.46
2022-07-26T02:26:52.775Z,19.63
2022-07-26T02:29:21.979Z,19.55
2022-07-26T02:31:49.895Z,19.70
2022-07-26T02:34:17.804Z,19.49
2022-07-26T02:36:46.646Z,19.57
2022-07-26T02:39:14.987Z,19.64
2022-07-26T02:41:43.212Z,19.46
2022-07-26T02:44:11.885Z,19.51
2022-07-26T02:46:41.330Z,19.25
2022-07-26T02:49:09.248Z,19.34
2022-07-26T02:51:37.151Z,19.45
2022-07-26T02:54:05.576Z,19.54
2022-07-26T02:56:33.705Z,19.54
2022-07-26T02:59:01.494Z,19.35
2022-07-26T03:01:29.371Z,19.19
2022-07-26T03:03:58.659Z,19.06
2022-07-26T03:06:26.461Z,19.28
2022-07-26T03:08:54.711Z,19.37
2022-07-26T03:11:22.471Z,19.41
2022-07-26T03:13:50.238Z,19.33
2022-07-26T03:16:22.618Z,19.35
2022-07-26T03:18:52.630Z,19.45
2022-07-26T03:21:21.782Z,19.47
2022-07-26T03:23:49.592Z,19.70
2022-07-26T03:26:17.446Z,19.49
2022-07-26T03:28:45.543Z,19.31
2022-07-26T03:31:14.064Z,19.45
2022-07-26T03:33:42.212Z,19.24
2022-07-26T03:36:11.673Z,19.54
2022-07-26T03:38:45.010Z,19.43
2022-07-26T03:41:13.515Z,19.54
2022-07-26T03:43:41.616Z,19.35
2022-07-26T03:46:09.539Z,19.36
2022-07-26T03:48:37.454Z,19.32
2022-07-26T03:51:05.585Z,19.59
2022-07-26T03:53:34.563Z,19.60
2022-07-26T03:56:21.997Z,19.44
2022-07-26T03:58:49.794Z,19.22
2022-07-26T04:01:17.701Z,19.56
2022-07-26T04:03:47.749Z,19.59
2022-07-26T04:06:16.294Z,19.42
2022-07-26T04:08:44.161Z,19.22
2022-07-26T04:11:13.578Z,19.35
2022-07-26T04:13:41.577Z,19.29
2022-07-26T04:16:09.755Z,19.42
2022-07-26T04:18:37.973Z,19.55
2022-07-26T04:21:05.965Z,19.56
2022-07-26T04:23:33.993Z,19.49
2022-07-26T04:26:01.930Z,19.48
2022-07-26T04:28:31.181Z,19.76
2022-07-26T04:31:00.118Z,19.74
2022-07-26T04:33:28.498Z,19.71
2022-07-26T04:35:56.457Z,20.11
2022-07-26T04:38:24.552Z,19.95
2022-07-26T04:40:53.040Z,19.88
2022-07-26T04:43:20.916Z,19.75
2022-07-26T04:45:50.201Z,19.66
2022-07-26T04:48:18.634Z,19.85
2022-07-26T04:50:46.694Z,19.75
2022-07-26T04:53:14.820Z,19.59
2022-07-26T04:55:43.060Z,19.64
2022-07-26T04:58:11.133Z,19.53
2022-07-26T05:01:02.832Z,19.81
2022-07-26T05:03:28.702Z,19.73
2022-07-26T05:05:56.532Z,19.75
2022-07-26T05:08:24.342Z,19.92
2022-07-26T05:10:55.665Z,20.06
2022-07-26T05:13:29.927Z,19.89
2022-07-26T05:15:58.801Z,19.94
2022-07-26T05:18:29.903Z,20.36
2022-07-26T05:20:59.573Z,19.91
2022-07-26T05:23:27.430Z,20.21
2022-07-26T05:25:55.466Z,20.33
2022-07-26T05:28:23.296Z,20.92
2022-07-26T05:30:51.456Z,20.69
2022-07-26T05:33:19.296Z,20.50
2022-07-26T05:35:48.453Z,20.69
2022-07-26T05:38:16.188Z,20.41
2022-07-26T05:40:47.286Z,20.69
2022-07-26T05:43:17.940Z,20.61
2022-07-26T05:45:45.840Z,20.36
2022-07-26T05:48:13.653Z,20.26
2022-07-26T05:50:41.479Z,20.59
2022-07-26T05:53:10.624Z,20.54
2022-07-26T05:55:38.446Z,20.87
2022-07-26T05:58:06.249Z,21.00
2022-07-26T06:00:34.536Z,20.64
2022-07-26T06:03:21.928Z,21.37
2022-07-26T06:05:50.063Z,21.53
2022-07-26T06:08:19.633Z,21.59
2022-07-26T06:10:47.823Z,21.57
2022-07-26T06:13:16.395Z,21.73
2022-07-26T06:15:44.873Z,21.37
2022-07-26T06:18:13.291Z,21.24
2022-07-26T06:20:41.440Z,21.21
2022-07-26T06:23:09.291Z,21.36
2022-07-26T06:25:38.537Z,21.48
2022-07-26T06:28:08.282Z,21.58
2022-07-26T06:30:36.836Z,20.93
2022-07-26T06:33:05.091Z,21.07
2022-07-26T06:35:35.435Z,21.22
2022-07-26T06:38:03.636Z,21.20
2022-07-26T06:40:31.707Z,21.31
2022-07-26T06:43:04.482Z,21.57
2022-07-26T06:45:33.144Z,21.54
2022-07-26T06:48:00.995Z,21.73
2022-07-26T06:50:28.929Z,21.53
2022-07-26T06:52:56.752Z,21.46
2022-07-26T06:55:24.823Z,21.45
2022-07-26T06:57:52.604Z,21.13
2022-07-26T07:00:22.138Z,21.02
2022-07-26T07:02:49.973Z,20.89
2022-07-26T07:05:17.986Z,21.61
2022-07-26T07:07:45.901Z,21.06
2022-07-26T07:10:14.371Z,21.60
2022-07-26T07:12:44.731Z,21.46
2022-07-26T07:15:13.045Z,21.96
2022-07-26T07:17:42.172Z,21.38
2022-07-26T07:20:10.890Z,21.77
2022-07-26T07:22:38.656Z,22.05
2022-07-26T07:25:07.302Z,22.13
2022-07-26T07:27:35.188Z,22.44
2022-07-26T07:30:03.213Z,22.39
2022-07-26T07:32:32.331Z,22.14
2022-07-26T07:35:01.837Z,21.58
2022-07-26T07:37:52.182Z,21.83
2022-07-26T07:40:17.742Z,22.09
2022-07-26T07:42:45.551Z,21.67
2022-07-26T07:45:13.317Z,21.94
2022-07-26T07:47:41.147Z,22.02
2022-07-26T07:50:10.752Z,22.34
2022-07-26T07:52:38.592Z,22.21
2022-07-26T07:55:36.403Z,22.31
2022-07-26T07:57:57.514Z,21.77
2022-07-26T08:00:27.485Z,22.45
2022-07-26T08:02:55.532Z,22.20
2022-07-26T08:05:24.878Z,21.33
2022-07-26T08:07:52.784Z,20.42
2022-07-26T08:10:20.742Z,20.36
2022-07-26T08:12:51.245Z,19.68
2022-07-26T08:15:19.819Z,18.99
2022-07-26T08:17:53.822Z,19.48
2022-07-26T08:20:25.115Z,19.49
2022-07-26T08:22:53.206Z,19.43
2022-07-26T08:25:21.256Z,19.33
2022-07-26T08:28:03.224Z,18.89
2022-07-26T08:30:31.916Z,19.25
2022-07-26T08:33:00.115Z,19.81
2022-07-26T08:35:30.112Z,19.55
2022-07-26T08:37:58.406Z,19.70
2022-07-26T08:40:26.305Z,19.58
2022-07-26T08:42:56.815Z,19.70
2022-07-26T08:45:25.501Z,19.90
2022-07-26T08:48:16.254Z,20.18
2022-07-26T08:50:43.207Z,20.34
2022-07-26T08:53:13.033Z,20.24
2022-07-26T08:58:29.415Z,20.07
2022-07-26T09:01:08.498Z,19.82
2022-07-26T09:03:37.910Z,19.76
2022-07-26T09:06:15.984Z,20.86
2022-07-26T09:08:45.172Z,20.53
2022-07-26T09:11:28.465Z,20.43
2022-07-26T09:13:58.173Z,20.42
2022-07-26T09:16:26.169Z,20.32
2022-07-26T09:18:54.170Z,20.73
2022-07-26T09:21:31.164Z,20.98
2022-07-26T09:23:59.308Z,21.40
2022-07-26T09:26:28.084Z,21.34
2022-07-26T09:29:07.319Z,21.56
2022-07-26T09:31:36.284Z,21.54
2022-07-26T09:34:05.590Z,21.91
2022-07-26T09:36:34.994Z,22.05
2022-07-26T09:39:05.061Z,21.86
2022-07-26T09:41:35.989Z,21.73
2022-07-26T09:44:06.049Z,22.45
2022-07-26T09:46:35.668Z,22.27
2022-07-26T09:49:18.685Z,21.78
2022-07-26T09:51:49.667Z,22.04
2022-07-26T09:54:20.823Z,22.16
2022-07-26T09:56:50.921Z,22.13
2022-07-26T09:59:20.465Z,21.00
2022-07-26T10:01:48.949Z,22.26
2022-07-26T10:04:17.647Z,22.21
2022-07-26T10:06:47.545Z,21.61
2022-07-26T10:09:16.485Z,21.29
2022-07-26T10:11:48.772Z,21.53
2022-07-26T10:14:35.973Z,21.01
2022-07-26T10:17:47.113Z,20.91
2022-07-26T10:20:43.823Z,20.65
2022-07-26T10:23:44.751Z,20.18
2022-07-26T10:26:35.084Z,20.59
2022-07-26T10:29:26.715Z,20.87
2022-07-26T10:32:17.518Z,20.64
2022-07-26T10:34:46.376Z,20.84
2022-07-26T10:37:24.089Z,21.45
2022-07-26T10:40:22.579Z,22.38
2022-07-26T10:42:50.700Z,22.50
2022-07-26T10:45:22.345Z,23.10
2022-07-26T10:48:13.287Z,22.69
2022-07-26T10:50:41.967Z,21.35
2022-07-26T10:53:11.847Z,21.32
2022-07-26T10:55:52.116Z,21.29
2022-07-26T10:58:20.686Z,20.80
2022-07-26T11:01:00.551Z,21.19
2022-07-26T11:03:38.824Z,21.36
2022-07-26T11:06:12.029Z,21.41
2022-07-26T11:08:42.421Z,21.03
2022-07-26T11:11:15.311Z,20.82
2022-07-26T11:13:43.082Z,20.99
2022-07-26T11:16:11.306Z,21.17
2022-07-26T11:18:40.093Z,21.37
2022-07-26T11:21:14.139Z,20.71
2022-07-26T11:23:44.153Z,21.10
2022-07-26T11:26:16.143Z,21.21
2022-07-26T11:29:00.334Z,21.56
2022-07-26T11:31:51.155Z,22.03
2022-07-26T11:34:29.872Z,23.47
2022-07-26T11:37:00.028Z,22.81
2022-07-26T11:39:30.000Z,23.12
2022-07-26T11:42:00.970Z,22.94
2022-07-26T11:44:29.445Z,23.62
2022-07-26T11:46:57.953Z,23.40
2022-07-26T11:49:52.169Z,21.53
2022-07-26T11:52:16.224Z,22.59
2022-07-26T11:54:54.422Z,22.49
2022-07-26T11:57:29.780Z,21.49
2022-07-26T11:59:57.852Z,21.79
2022-07-26T12:02:25.673Z,22.88
2022-07-26T12:05:14.085Z,23.74
2022-07-26T12:07:54.874Z,22.93
2022-07-26T12:10:22.934Z,23.11
2022-07-26T12:13:07.265Z,22.46
2022-07-26T12:15:45.788Z,24.22
2022-07-26T12:18:22.997Z,24.26
2022-07-26T12:21:03.905Z,24.29
2022-07-26T12:23:42.343Z,23.87
2022-07-26T12:26:20.873Z,24.60
2022-07-26T12:28:50.031Z,25.61
2022-07-26T12:31:25.928Z,23.57
2022-07-26T12:33:54.042Z,23.42
2022-07-26T12:36:27.945Z,23.36
2022-07-26T12:38:57.468Z,24.33
2022-07-26T12:41:36.174Z,23.74
2022-07-26T12:44:06.316Z,24.79
2022-07-26T12:46:35.320Z,25.60
2022-07-26T12:49:03.645Z,24.87
2022-07-26T12:51:31.722Z,24.67
2022-07-26T12:53:59.514Z,24.73
2022-07-26T12:56:27.384Z,24.97
2022-07-26T12:59:00.974Z,25.25
2022-07-26T13:01:31.215Z,23.18
2022-07-26T13:03:59.474Z,23.78
2022-07-26T13:06:27.310Z,24.04
2022-07-26T13:08:56.434Z,25.85
2022-07-26T13:11:24.962Z,23.74
2022-07-26T13:13:52.817Z,25.41
2022-07-26T13:16:20.705Z,24.84
2022-07-26T13:18:49.895Z,24.75
2022-07-26T13:21:17.742Z,25.15
2022-07-26T13:23:45.549Z,24.81
2022-07-26T13:26:14.021Z,25.24
2022-07-26T13:28:42.441Z,25.76
2022-07-26T13:31:10.806Z,26.27
2022-07-26T13:33:39.475Z,25.90
2022-07-26T13:36:08.875Z,25.40
2022-07-26T13:38:36.722Z,25.94
2022-07-26T13:41:05.331Z,25.67
2022-07-26T13:43:33.312Z,25.21
2022-07-26T13:46:01.114Z,26.23
2022-07-26T13:48:29.283Z,24.58
2022-07-26T13:50:58.003Z,25.27
2022-07-26T13:53:29.958Z,25.38
2022-07-26T13:55:57.751Z,26.17
2022-07-26T13:58:25.525Z,25.92
2022-07-26T14:00:53.704Z,26.16
2022-07-26T14:03:21.783Z,25.18
2022-07-26T14:05:49.630Z,25.29
2022-07-26T14:08:17.636Z,26.39
2022-07-26T14:10:47.159Z,26.53
2022-07-26T14:13:15.091Z,25.37
2022-07-26T14:15:42.842Z,24.53
2022-07-26T14:18:10.656Z,25.30
2022-07-26T14:20:39.230Z,27.32
2022-07-26T14:23:07.001Z,25.80
2022-07-26T14:25:34.999Z,25.08
2022-07-26T14:28:04.449Z,23.81
2022-07-26T14:30:32.290Z,25.58
2022-07-26T14:33:01.118Z,25.85
2022-07-26T14:35:29.193Z,26.26
2022-07-26T14:37:57.015Z,26.18
2022-07-26T14:40:24.840Z,26.23
2022-07-26T14:42:52.767Z,26.18
2022-07-26T14:45:21.948Z,25.40
2022-07-26T14:47:49.723Z,26.06
2022-07-26T14:50:17.561Z,26.10
2022-07-26T14:52:47.607Z,26.07
2022-07-26T14:55:23.000Z,24.91
2022-07-26T14:57:52.797Z,25.84
2022-07-26T15:00:21.954Z,25.94
2022-07-26T15:02:50.408Z,26.93
2022-07-26T15:05:19.031Z,25.23
2022-07-26T15:07:47.979Z,25.08
2022-07-26T15:10:16.683Z,24.24
2022-07-26T15:12:45.142Z,24.14
2022-07-26T15:15:13.010Z,25.87
2022-07-26T15:17:42.210Z,25.05
2022-07-26T15:20:10.371Z,25.37
2022-07-26T15:22:38.227Z,23.84
2022-07-26T15:25:07.217Z,24.00
2022-07-26T15:27:35.112Z,24.18
2022-07-26T15:30:06.126Z,24.92
2022-07-26T15:32:37.191Z,25.71
2022-07-26T15:35:08.285Z,24.55
2022-07-26T15:37:43.692Z,24.73
2022-07-26T15:40:12.843Z,23.66
2022-07-26T15:42:43.446Z,23.78
2022-07-26T15:45:13.018Z,23.39
2022-07-26T15:47:54.737Z,22.26
2022-07-26T15:50:26.030Z,22.80
2022-07-26T15:52:53.860Z,24.49
2022-07-26T15:55:21.872Z,24.03
2022-07-26T15:57:49.671Z,25.29
2022-07-26T16:00:18.349Z,24.50
2022-07-26T16:02:46.193Z,24.03
2022-07-26T16:05:14.164Z,23.10
2022-07-26T16:07:44.724Z,23.76
2022-07-26T16:10:13.916Z,24.00
2022-07-26T16:12:42.664Z,23.60
2022-07-26T16:15:11.719Z,22.50
2022-07-26T16:17:39.590Z,23.22
2022-07-26T16:20:08.903Z,22.82
2022-07-26T16:22:40.826Z,23.64
2022-07-26T16:25:13.111Z,22.61
2022-07-26T16:27:42.069Z,21.32
2022-07-26T16:30:11.194Z,22.08
2022-07-26T16:32:39.024Z,22.15
2022-07-26T16:35:07.770Z,23.12
2022-07-26T16:37:35.592Z,23.18
2022-07-26T16:40:06.908Z,22.34
2022-07-26T16:42:36.464Z,22.84
2022-07-26T16:45:04.909Z,22.55
2022-07-26T16:47:32.639Z,22.71
2022-07-26T16:50:00.391Z,22.31
2022-07-26T16:52:28.629Z,22.62
2022-07-26T16:54:56.484Z,22.95
2022-07-26T16:57:24.483Z,22.68
2022-07-26T16:59:53.646Z,22.87
2022-07-26T17:02:21.573Z,23.39
2022-07-26T17:04:49.514Z,23.19
2022-07-26T17:07:26.087Z,21.72
2022-07-26T17:09:55.034Z,20.46
2022-07-26T17:12:22.987Z,21.45
2022-07-26T17:14:51.187Z,20.89
2022-07-26T17:17:20.371Z,21.01
2022-07-26T17:19:48.313Z,21.09
2022-07-26T17:22:16.904Z,20.81
2022-07-26T17:24:45.115Z,20.70
2022-07-26T17:27:12.993Z,20.95
2022-07-26T17:29:40.747Z,20.67
2022-07-26T17:32:09.691Z,20.16
2022-07-26T17:34:39.409Z,20.59
2022-07-26T17:37:09.979Z,19.94
2022-07-26T17:39:52.052Z,20.21
2022-07-26T17:42:20.926Z,19.88
2022-07-26T17:44:48.749Z,19.94
2022-07-26T17:47:28.574Z,19.95
2022-07-26T17:50:13.977Z,20.29
2022-07-26T17:52:47.820Z,20.13
2022-07-26T17:55:15.862Z,19.83
2022-07-26T17:57:43.659Z,20.12
2022-07-26T18:00:12.727Z,20.32
2022-07-26T18:02:40.731Z,20.90
2022-07-26T18:05:11.068Z,20.85
2022-07-26T18:07:39.231Z,20.32
2022-07-26T18:10:08.033Z,20.20
2022-07-26T18:12:36.108Z,20.00
2022-07-26T18:15:03.888Z,19.85
2022-07-26T18:17:31.625Z,19.30
2022-07-26T18:19:59.998Z,19.37
2022-07-26T18:22:29.165Z,19.59
2022-07-26T18:24:56.930Z,19.39
2022-07-26T18:27:28.032Z,19.48
2022-07-26T18:29:55.913Z,19.66
2022-07-26T18:32:24.808Z,19.33
2022-07-26T18:34:53.197Z,19.42
2022-07-26T18:37:21.849Z,19.33
2022-07-26T18:39:57.083Z,19.26
2022-07-26T18:42:25.592Z,19.29
2022-07-26T18:44:53.405Z,19.51
2022-07-26T18:47:21.281Z,19.69
2022-07-26T18:49:49.267Z,19.49
2022-07-26T18:52:18.067Z,19.73
2022-07-26T18:55:06.538Z,19.72
2022-07-26T18:57:34.568Z,19.30
2022-07-26T19:00:02.423Z,19.75
2022-07-26T19:02:30.187Z,19.44
2022-07-26T19:04:57.954Z,19.70
2022-07-26T19:07:25.891Z,19.59
2022-07-26T19:09:58.172Z,19.29
2022-07-26T19:12:28.234Z,19.15
2022-07-26T19:14:56.489Z,18.89
2022-07-26T19:17:24.403Z,19.01
2022-07-26T19:19:52.278Z,19.23
2022-07-26T19:22:20.679Z,19.02
2022-07-26T19:24:48.633Z,18.95
2022-07-26T19:27:16.463Z,19.08
2022-07-26T19:29:45.803Z,19.01
2022-07-26T19:32:13.645Z,18.71
2022-07-26T19:34:42.085Z,18.95
2022-07-26T19:37:09.964Z,18.89
2022-07-26T19:39:37.768Z,18.62
2022-07-26T19:42:06.071Z,19.30
2022-07-26T19:44:33.916Z,18.94
2022-07-26T19:47:03.124Z,19.04
2022-07-26T19:49:30.892Z,18.63
2022-07-26T19:51:59.726Z,18.69
2022-07-26T19:54:28.337Z,18.72
2022-07-26T19:56:56.126Z,18.68
2022-07-26T19:59:24.718Z,18.35
2022-07-26T20:01:56.555Z,18.95
2022-07-26T20:04:27.842Z,18.49
2022-07-26T20:06:56.416Z,18.28
2022-07-26T20:09:24.393Z,18.59
2022-07-26T20:11:52.207Z,18.65
2022-07-26T20:14:21.123Z,18.99
2022-07-26T20:16:54.129Z,18.89
2022-07-26T20:19:24.532Z,18.84
2022-07-26T20:21:53.690Z,18.65
2022-07-26T20:24:21.734Z,18.64
2022-07-26T20:26:49.521Z,18.86
2022-07-26T20:29:17.391Z,18.50
2022-07-26T20:31:45.820Z,18.73
2022-07-26T20:34:13.717Z,18.18
2022-07-26T20:36:41.507Z,18.47
2022-07-26T20:39:10.976Z,18.35
2022-07-26T20:41:39.181Z,18.22
2022-07-26T20:44:07.052Z,18.18
2022-07-26T20:46:39.713Z,17.87
2022-07-26T20:49:07.955Z,17.82
2022-07-26T20:51:35.875Z,17.99
2022-07-26T20:54:03.975Z,17.76
2022-07-26T20:56:33.879Z,17.77
2022-07-26T20:59:02.313Z,17.74
2022-07-26T21:01:30.236Z,17.84
2022-07-26T21:03:58.222Z,17.73
2022-07-26T21:06:29.052Z,17.73
2022-07-26T21:08:57.795Z,17.49
2022-07-26T21:11:25.735Z,18.00
2022-07-26T21:13:54.937Z,17.95
2022-07-26T21:16:23.027Z,17.65
2022-07-26T21:18:52.556Z,17.73
2022-07-26T21:21:21.213Z,17.82
2022-07-26T21:23:49.780Z,17.58
2022-07-26T21:26:17.704Z,17.59
2022-07-26T21:28:45.519Z,17.61
2022-07-26T21:31:14.688Z,17.32
2022-07-26T21:33:44.226Z,17.17
2022-07-26T21:36:12.065Z,17.22
2022-07-26T21:38:39.858Z,17.25
2022-07-26T21:41:07.670Z,17.34
2022-07-26T21:43:35.645Z,17.40
2022-07-26T21:46:06.697Z,17.39
2022-07-26T21:48:38.235Z,17.11
2022-07-26T21:51:06.071Z,16.98
2022-07-26T21:53:33.938Z,17.31
2022-07-26T21:56:01.740Z,17.42
2022-07-26T21:58:33.284Z,16.73
2022-07-26T22:01:07.382Z,16.75
2022-07-26T22:03:37.488Z,17.34
2022-07-26T22:06:07.741Z,17.39
2022-07-26T22:08:35.675Z,17.24
2022-07-26T22:11:03.896Z,17.49
2022-07-26T22:13:31.860Z,17.47
2022-07-26T22:15:59.747Z,17.44
2022-07-26T22:18:27.719Z,17.75
2022-07-26T22:20:56.031Z,17.40
2022-07-26T22:23:30.018Z,17.54
2022-07-26T22:25:58.177Z,17.46
2022-07-26T22:28:26.276Z,16.93
2022-07-26T22:30:54.580Z,16.92
2022-07-26T22:33:26.197Z,17.30
2022-07-26T22:35:54.490Z,17.08
2022-07-26T22:38:22.339Z,17.29
2022-07-26T22:40:51.499Z,17.09
2022-07-26T22:43:19.302Z,17.15
2022-07-26T22:45:47.202Z,17.16
2022-07-26T22:48:15.071Z,17.31
2022-07-26T22:50:42.950Z,17.19
2022-07-26T22:53:10.801Z,17.07
2022-07-26T22:55:38.640Z,17.42
2022-07-26T22:58:07.798Z,17.43
2022-07-26T23:00:35.816Z,17.21
2022-07-26T23:03:03.764Z,17.37
2022-07-26T23:05:45.423Z,17.07
2022-07-26T23:08:45.188Z,17.10
2022-07-26T23:11:02.510Z,17.46
2022-07-26T23:13:31.829Z,17.63
2022-07-26T23:16:01.063Z,17.36
2022-07-26T23:18:29.785Z,17.72
2022-07-26T23:20:57.850Z,17.19
2022-07-26T23:23:29.242Z,17.34
2022-07-26T23:25:57.949Z,17.11
2022-07-26T23:28:36.530Z,17.60
2022-07-26T23:31:08.891Z,17.54
2022-07-26T23:33:52.408Z,17.45
2022-07-26T23:36:26.202Z,17.30
2022-07-26T23:38:54.847Z,17.46
2022-07-26T23:41:23.355Z,17.39
2022-07-26T23:43:51.524Z,17.64
2022-07-26T23:46:21.208Z,17.72
2022-07-26T23:48:49.189Z,17.92
2022-07-26T23:51:17.132Z,17.68
2022-07-26T23:53:44.938Z,17.59
2022-07-26T23:56:12.884Z,17.81
2022-07-26T23:58:40.699Z,17.64
